Time;durP1;ratioP1;P1;durP2;ratioP2;P2;SDS_P1;SDS_P2;PMS_P1;PMS_P2;Temp;Humidity;BMP_temperature;BMP_pressure;BME280_temperature;BME280_humidity;BME280_pressure;Samples;Min_cycle;Max_cycle;Signal;HPM_P1;HPM_P2
2021/05/28 00:01:25;;;;;;;2.35;2.05;;;;;;;;;;4983735;28;20139;-57
2021/05/28 00:03:50;;;;;;;5.28;2.25;;;;;;;;;;4972070;28;20033;-57
2021/05/28 00:06:16;;;;;;;2.47;2.00;;;;;;;;;;5019080;28;20044;-57
2021/05/28 00:08:42;;;;;;;2.80;1.98;;;;;;;;;;4986777;28;20058;-58
2021/05/28 00:11:07;;;;;;;1.80;1.70;;;;;;;;;;4987149;28;20109;-58
2021/05/28 00:13:33;;;;;;;2.10;1.90;;;;;;;;;;4969308;28;20041;-57
2021/05/28 00:15:59;;;;;;;3.13;1.70;;;;;;;;;;4981262;28;20029;-57
2021/05/28 00:18:24;;;;;;;1.77;1.67;;;;;;;;;;4984860;28;20100;-57
2021/05/28 00:20:50;;;;;;;1.63;1.52;;;;;;;;;;4984656;28;20114;-57
2021/05/28 00:23:16;;;;;;;2.50;1.80;;;;;;;;;;4984479;28;20037;-57
2021/05/28 00:25:42;;;;;;;2.30;1.73;;;;;;;;;;4985998;28;20607;-57
2021/05/28 00:28:08;;;;;;;2.10;1.60;;;;;;;;;;4986541;28;20029;-57
2021/05/28 00:30:33;;;;;;;2.13;1.80;;;;;;;;;;4986836;28;20033;-57
2021/05/28 00:32:59;;;;;;;3.83;1.65;;;;;;;;;;4987229;28;20030;-57
2021/05/28 00:35:25;;;;;;;1.95;1.52;;;;;;;;;;4981805;28;20058;-57
2021/05/28 00:37:50;;;;;;;3.22;1.50;;;;;;;;;;4986804;28;20031;-57
2021/05/28 00:40:16;;;;;;;1.88;1.70;;;;;;;;;;4986102;28;20118;-57
2021/05/28 00:42:43;;;;;;;2.00;1.45;;;;;;;;;;4987212;28;20026;-57
2021/05/28 00:45:09;;;;;;;2.83;1.55;;;;;;;;;;4985054;28;20111;-58
2021/05/28 00:47:35;;;;;;;3.22;1.60;;;;;;;;;;4985919;28;20432;-57
2021/05/28 00:50:00;;;;;;;1.60;1.50;;;;;;;;;;5015403;28;20034;-57
2021/05/28 00:52:26;;;;;;;1.80;1.70;;;;;;;;;;4996984;28;20034;-58
2021/05/28 00:54:53;;;;;;;2.63;2.20;;;;;;;;;;4978282;28;20038;-57
2021/05/28 00:57:21;;;;;;;2.58;2.38;;;;;;;;;;5017165;28;20044;-57
2021/05/28 00:59:49;;;;;;;2.55;2.33;;;;;;;;;;4986198;28;20070;-57
2021/05/28 01:02:15;;;;;;;3.25;2.50;;;;;;;;;;4981859;28;20062;-57
2021/05/28 01:04:41;;;;;;;4.20;2.90;;;;;;;;;;5002794;28;20397;-57
2021/05/28 01:07:06;;;;;;;2.83;2.63;;;;;;;;;;4983773;28;20465;-58
2021/05/28 01:09:32;;;;;;;2.95;2.47;;;;;;;;;;4986030;28;20022;-58
2021/05/28 01:11:58;;;;;;;3.70;3.00;;;;;;;;;;5015025;28;20170;-58
2021/05/28 01:14:24;;;;;;;2.67;2.45;;;;;;;;;;4983230;28;20221;-57
2021/05/28 01:16:49;;;;;;;3.15;2.72;;;;;;;;;;4985162;28;20350;-57
2021/05/28 01:19:15;;;;;;;3.25;2.95;;;;;;;;;;4980610;28;20415;-58
2021/05/28 01:21:42;;;;;;;2.50;2.30;;;;;;;;;;4984849;28;20054;-58
2021/05/28 01:24:08;;;;;;;2.65;2.40;;;;;;;;;;4981635;28;20036;-60
2021/05/28 01:26:34;;;;;;;2.92;2.63;;;;;;;;;;4983395;28;20117;-59
2021/05/28 01:29:00;;;;;;;3.45;2.70;;;;;;;;;;4983813;28;20022;-58
2021/05/28 01:31:25;;;;;;;3.05;2.55;;;;;;;;;;4983757;28;20026;-57
2021/05/28 01:33:51;;;;;;;2.95;2.50;;;;;;;;;;4985139;28;20484;-57
2021/05/28 01:36:16;;;;;;;3.10;2.80;;;;;;;;;;4978606;28;20114;-58
2021/05/28 01:38:42;;;;;;;3.03;2.75;;;;;;;;;;5010953;28;20039;-57
2021/05/28 01:41:08;;;;;;;3.25;2.65;;;;;;;;;;4984994;28;20511;-57
2021/05/28 01:43:34;;;;;;;4.07;2.80;;;;;;;;;;4981743;28;20034;-57
2021/05/28 01:46:00;;;;;;;3.17;2.40;;;;;;;;;;4984241;28;20505;-57
2021/05/28 01:48:25;;;;;;;4.63;3.03;;;;;;;;;;4983017;28;20065;-57
2021/05/28 01:50:52;;;;;;;3.42;2.30;;;;;;;;;;4979919;28;20124;-57
2021/05/28 01:53:20;;;;;;;4.18;2.65;;;;;;;;;;4983302;28;20038;-58
2021/05/28 01:55:47;;;;;;;3.38;3.03;;;;;;;;;;4985774;28;20034;-57
2021/05/28 01:58:15;;;;;;;3.80;3.13;;;;;;;;;;4983507;28;20023;-57
2021/05/28 02:00:42;;;;;;;3.10;2.80;;;;;;;;;;4971760;28;20038;-56
2021/05/28 02:03:08;;;;;;;3.70;3.03;;;;;;;;;;4984427;28;20042;-57
2021/05/28 02:05:35;;;;;;;5.13;3.20;;;;;;;;;;4999530;28;20096;-57
2021/05/28 02:08:00;;;;;;;4.97;3.28;;;;;;;;;;4983767;28;20105;-56
2021/05/28 02:10:27;;;;;;;3.35;3.03;;;;;;;;;;5001492;28;20574;-57
2021/05/28 02:12:53;;;;;;;4.78;3.78;;;;;;;;;;5017058;28;20041;-57
2021/05/28 02:15:18;;;;;;;4.47;3.33;;;;;;;;;;4982135;28;20088;-56
2021/05/28 02:17:44;;;;;;;5.22;3.67;;;;;;;;;;4984790;28;20028;-56
2021/05/28 02:20:11;;;;;;;4.63;3.55;;;;;;;;;;4982571;28;20416;-57
2021/05/28 02:22:36;;;;;;;5.38;4.20;;;;;;;;;;4984189;28;20081;-57
2021/05/28 02:25:03;;;;;;;4.80;3.95;;;;;;;;;;4986197;28;20026;-57
2021/05/28 02:27:29;;;;;;;5.65;4.28;;;;;;;;;;4986391;28;20065;-57
2021/05/28 02:29:55;;;;;;;5.45;3.60;;;;;;;;;;5016855;28;20033;-56
2021/05/28 02:32:21;;;;;;;3.78;3.38;;;;;;;;;;4985180;28;20033;-57
2021/05/28 02:34:46;;;;;;;6.38;4.00;;;;;;;;;;4984054;28;20097;-56
2021/05/28 02:37:12;;;;;;;4.10;3.15;;;;;;;;;;4986513;28;20073;-57
2021/05/28 02:39:37;;;;;;;4.15;3.63;;;;;;;;;;4983995;28;21310;-57
2021/05/28 02:42:03;;;;;;;5.80;3.65;;;;;;;;;;4984034;28;20038;-57
2021/05/28 02:44:29;;;;;;;4.30;3.90;;;;;;;;;;5004670;28;20092;-57
2021/05/28 02:46:54;;;;;;;5.28;3.92;;;;;;;;;;4985960;28;20026;-56
2021/05/28 02:49:20;;;;;;;4.18;3.72;;;;;;;;;;5020144;28;20030;-56
2021/05/28 02:51:45;;;;;;;4.05;3.65;;;;;;;;;;5016986;28;20038;-56
2021/05/28 02:54:11;;;;;;;7.10;3.70;;;;;;;;;;4991602;28;20053;-57
2021/05/28 02:56:36;;;;;;;3.95;3.50;;;;;;;;;;4988569;28;20038;-56
2021/05/28 02:59:02;;;;;;;3.67;3.38;;;;;;;;;;4972999;28;20495;-56
2021/05/28 03:01:28;;;;;;;3.55;3.20;;;;;;;;;;4985205;28;20026;-56
2021/05/28 03:03:54;;;;;;;3.85;3.42;;;;;;;;;;4986504;28;20051;-57
2021/05/28 03:06:19;;;;;;;4.60;3.47;;;;;;;;;;4999120;28;20450;-57
2021/05/28 03:08:45;;;;;;;4.53;4.10;;;;;;;;;;4987789;28;20049;-56
2021/05/28 03:11:10;;;;;;;5.85;3.95;;;;;;;;;;4987742;28;20029;-56
2021/05/28 03:13:36;;;;;;;7.65;3.95;;;;;;;;;;4987353;28;20448;-57
2021/05/28 03:16:02;;;;;;;3.58;3.28;;;;;;;;;;4982917;28;20401;-57
2021/05/28 03:18:36;;;;;;;4.53;3.38;;;;;;;;;;4988602;28;20030;-57
2021/05/28 03:21:20;;;;;;;4.93;3.10;;;;;;;;;;5017309;28;20135;-57
2021/05/28 03:23:50;;;;;;;4.55;3.90;;;;;;;;;;4987963;28;20042;-56
2021/05/28 03:26:16;;;;;;;4.22;3.67;;;;;;;;;;4987911;28;20056;-57
2021/05/28 03:28:42;;;;;;;5.35;4.00;;;;;;;;;;5003650;28;20121;-57
2021/05/28 03:31:07;;;;;;;5.97;3.55;;;;;;;;;;4986994;28;20057;-57
2021/05/28 03:33:33;;;;;;;4.97;3.80;;;;;;;;;;4987697;28;20040;-57
2021/05/28 03:35:59;;;;;;;4.43;3.92;;;;;;;;;;4981905;28;20042;-57
2021/05/28 03:38:25;;;;;;;4.00;3.60;;;;;;;;;;4987706;28;20496;-57
2021/05/28 03:40:51;;;;;;;5.10;3.97;;;;;;;;;;4986793;28;20061;-57
2021/05/28 03:43:16;;;;;;;4.43;3.60;;;;;;;;;;4985714;28;20439;-57
2021/05/28 03:45:42;;;;;;;5.18;4.25;;;;;;;;;;4987691;28;20402;-56
2021/05/28 03:48:08;;;;;;;6.85;5.40;;;;;;;;;;5016812;28;20026;-57
2021/05/28 03:50:33;;;;;;;5.55;4.50;;;;;;;;;;4987216;28;20334;-56
2021/05/28 03:52:59;;;;;;;7.60;4.60;;;;;;;;;;4987770;28;20114;-57
2021/05/28 03:55:25;;;;;;;8.10;4.85;;;;;;;;;;4986301;28;20125;-58
2021/05/28 03:57:52;;;;;;;5.72;4.68;;;;;;;;;;5016903;28;20033;-57
2021/05/28 04:00:17;;;;;;;7.85;5.25;;;;;;;;;;4984718;28;20030;-57
2021/05/28 04:02:43;;;;;;;7.57;6.05;;;;;;;;;;4985749;28;20039;-57
2021/05/28 04:05:10;;;;;;;7.80;5.28;;;;;;;;;;4987316;28;20030;-57
2021/05/28 04:07:36;;;;;;;5.15;4.65;;;;;;;;;;5018109;28;20105;-56
2021/05/28 04:10:02;;;;;;;5.07;4.57;;;;;;;;;;4985264;28;20126;-57
2021/05/28 04:12:28;;;;;;;5.55;4.60;;;;;;;;;;4988839;28;20475;-57
2021/05/28 04:14:53;;;;;;;7.30;5.00;;;;;;;;;;4983980;28;20146;-57
2021/05/28 04:17:19;;;;;;;7.47;5.13;;;;;;;;;;4985950;28;20038;-57
2021/05/28 04:19:44;;;;;;;5.25;4.53;;;;;;;;;;4985107;28;20030;-57
2021/05/28 04:22:10;;;;;;;5.32;4.60;;;;;;;;;;5018824;28;20535;-57
2021/05/28 04:24:35;;;;;;;6.18;4.40;;;;;;;;;;4983382;28;20137;-56
2021/05/28 04:27:01;;;;;;;6.95;4.90;;;;;;;;;;4983785;28;20030;-56
2021/05/28 04:29:27;;;;;;;7.38;5.57;;;;;;;;;;5016457;28;20096;-57
2021/05/28 04:31:52;;;;;;;8.02;5.65;;;;;;;;;;4970581;28;20038;-57
2021/05/28 04:34:18;;;;;;;12.40;6.95;;;;;;;;;;4982829;28;20049;-56
2021/05/28 04:36:44;;;;;;;13.82;7.50;;;;;;;;;;4999112;28;20402;-56
2021/05/28 04:39:09;;;;;;;13.77;8.57;;;;;;;;;;4986551;28;20117;-57
2021/05/28 04:41:35;;;;;;;13.68;7.90;;;;;;;;;;4985910;28;20110;-56
2021/05/28 04:44:00;;;;;;;9.32;6.68;;;;;;;;;;4970829;28;20030;-57
2021/05/28 04:46:27;;;;;;;7.97;5.97;;;;;;;;;;4983604;28;20057;-58
2021/05/28 04:48:52;;;;;;;7.72;5.32;;;;;;;;;;4983983;28;20027;-58
2021/05/28 04:51:18;;;;;;;10.02;7.28;;;;;;;;;;4986903;28;20030;-58
2021/05/28 04:53:43;;;;;;;11.80;7.30;;;;;;;;;;4999003;28;20493;-56
2021/05/28 04:56:09;;;;;;;11.93;7.63;;;;;;;;;;4984114;28;20073;-59
2021/05/28 04:58:35;;;;;;;11.27;6.45;;;;;;;;;;4986103;28;20079;-59
2021/05/28 05:01:01;;;;;;;7.28;5.43;;;;;;;;;;4984241;28;20571;-59
2021/05/28 05:03:26;;;;;;;8.15;6.03;;;;;;;;;;4985641;28;20030;-59
2021/05/28 05:05:52;;;;;;;8.05;5.60;;;;;;;;;;5017059;28;20065;-59
2021/05/28 05:08:18;;;;;;;8.68;5.97;;;;;;;;;;4982247;28;20050;-59
2021/05/28 05:10:44;;;;;;;7.78;5.30;;;;;;;;;;4984119;28;20399;-59
2021/05/28 05:13:12;;;;;;;7.40;5.68;;;;;;;;;;5001167;28;20027;-59
2021/05/28 05:15:38;;;;;;;7.13;5.65;;;;;;;;;;4986944;28;20057;-59
2021/05/28 05:18:08;;;;;;;8.38;6.32;;;;;;;;;;4980294;28;20187;-59
2021/05/28 05:20:35;;;;;;;7.20;5.40;;;;;;;;;;4982874;28;20028;-59
2021/05/28 05:23:02;;;;;;;8.20;5.93;;;;;;;;;;4981617;28;20022;-59
2021/05/28 05:25:27;;;;;;;9.85;6.22;;;;;;;;;;5000440;28;20077;-59
2021/05/28 05:27:53;;;;;;;9.52;5.45;;;;;;;;;;4965210;28;20042;-59
2021/05/28 05:30:20;;;;;;;6.65;4.90;;;;;;;;;;4984369;28;20030;-59
2021/05/28 05:32:46;;;;;;;7.25;4.32;;;;;;;;;;4980197;28;20027;-59
2021/05/28 05:35:15;;;;;;;5.97;4.00;;;;;;;;;;4983304;28;20018;-59
2021/05/28 05:37:40;;;;;;;22.63;12.27;;;;;;;;;;4982903;28;20109;-59
2021/05/28 05:40:07;;;;;;;5.82;3.80;;;;;;;;;;5001236;28;20197;-59
2021/05/28 05:42:36;;;;;;;8.48;5.28;;;;;;;;;;4995835;28;20220;-58
2021/05/28 05:45:03;;;;;;;6.78;4.03;;;;;;;;;;4981255;28;20404;-58
2021/05/28 05:47:29;;;;;;;4.15;3.03;;;;;;;;;;4985318;28;20034;-58
2021/05/28 05:49:54;;;;;;;5.78;3.58;;;;;;;;;;4984028;28;20116;-58
2021/05/28 05:52:20;;;;;;;5.65;3.25;;;;;;;;;;4982628;28;20030;-59
2021/05/28 05:54:46;;;;;;;4.50;3.17;;;;;;;;;;4981911;28;20196;-58
2021/05/28 05:57:12;;;;;;;5.50;3.72;;;;;;;;;;5015895;28;20124;-58
2021/05/28 05:59:38;;;;;;;3.83;3.00;;;;;;;;;;4983729;28;20030;-58
2021/05/28 06:02:04;;;;;;;3.45;2.85;;;;;;;;;;4978503;28;20039;-58
2021/05/28 06:04:30;;;;;;;5.18;3.17;;;;;;;;;;4985450;28;20030;-58
2021/05/28 06:06:55;;;;;;;5.22;2.60;;;;;;;;;;5010763;28;20023;-59
2021/05/28 06:09:21;;;;;;;5.30;2.97;;;;;;;;;;5014361;28;20452;-58
2021/05/28 06:11:47;;;;;;;4.75;3.90;;;;;;;;;;4981944;28;20022;-59
2021/05/28 06:14:13;;;;;;;4.75;3.42;;;;;;;;;;4986644;28;20022;-60
2021/05/28 06:16:42;;;;;;;3.20;2.72;;;;;;;;;;5011735;28;20053;-59
2021/05/28 06:19:07;;;;;;;5.13;3.58;;;;;;;;;;4970279;28;20048;-60
2021/05/28 06:21:34;;;;;;;4.35;3.15;;;;;;;;;;4985248;28;20030;-59
2021/05/28 06:23:59;;;;;;;5.18;4.03;;;;;;;;;;5020358;28;20033;-59
2021/05/28 06:26:25;;;;;;;5.70;4.20;;;;;;;;;;5003255;28;20034;-59
2021/05/28 06:28:51;;;;;;;6.78;5.00;;;;;;;;;;4970501;28;20027;-59
2021/05/28 06:31:16;;;;;;;5.88;4.32;;;;;;;;;;4986121;28;20475;-59
2021/05/28 06:33:44;;;;;;;6.45;4.20;;;;;;;;;;4986672;28;20425;-59
2021/05/28 06:36:10;;;;;;;8.10;5.05;;;;;;;;;;5020561;28;20492;-59
2021/05/28 06:38:36;;;;;;;8.55;5.53;;;;;;;;;;4988071;28;20088;-59
2021/05/28 06:41:02;;;;;;;9.75;6.40;;;;;;;;;;4985766;28;20038;-59
2021/05/28 06:43:28;;;;;;;6.72;5.47;;;;;;;;;;4990013;28;20324;-59
2021/05/28 06:45:54;;;;;;;7.30;5.82;;;;;;;;;;4987928;28;20030;-59
2021/05/28 06:48:19;;;;;;;6.93;4.93;;;;;;;;;;5014357;28;20029;-60
2021/05/28 06:50:46;;;;;;;7.55;5.00;;;;;;;;;;4986444;28;20378;-60
2021/05/28 06:53:12;;;;;;;6.72;5.35;;;;;;;;;;4988690;28;20036;-59
2021/05/28 06:55:38;;;;;;;6.47;4.90;;;;;;;;;;4988837;28;20465;-59
2021/05/28 06:58:04;;;;;;;5.25;4.40;;;;;;;;;;5002373;28;20030;-59
2021/05/28 07:00:30;;;;;;;4.63;4.07;;;;;;;;;;4988537;28;20041;-60
2021/05/28 07:02:56;;;;;;;5.00;3.85;;;;;;;;;;4987389;28;20404;-59
2021/05/28 07:05:24;;;;;;;6.80;4.47;;;;;;;;;;4986953;28;20030;-59
2021/05/28 07:07:51;;;;;;;6.88;4.15;;;;;;;;;;4988384;28;20204;-60
2021/05/28 07:10:16;;;;;;;6.32;4.43;;;;;;;;;;4989678;28;20034;-59
2021/05/28 07:12:42;;;;;;;5.82;4.38;;;;;;;;;;4991178;28;20037;-59
2021/05/28 07:15:08;;;;;;;5.05;4.28;;;;;;;;;;4988259;28;20031;-60
2021/05/28 07:17:34;;;;;;;7.55;4.70;;;;;;;;;;5005504;28;20495;-59
2021/05/28 07:20:01;;;;;;;11.65;4.93;;;;;;;;;;4988690;28;20034;-59
2021/05/28 07:22:26;;;;;;;5.75;4.57;;;;;;;;;;4987913;28;20030;-59
2021/05/28 07:24:52;;;;;;;7.43;5.10;;;;;;;;;;4988337;28;20392;-59
2021/05/28 07:27:18;;;;;;;6.65;4.22;;;;;;;;;;4998994;28;20034;-59
2021/05/28 07:29:46;;;;;;;6.38;4.25;;;;;;;;;;4985625;28;20027;-59
2021/05/28 07:32:12;;;;;;;6.75;4.88;;;;;;;;;;4988544;28;20216;-60
2021/05/28 07:34:38;;;;;;;7.57;4.50;;;;;;;;;;4989244;28;20385;-60
2021/05/28 07:37:04;;;;;;;5.70;4.80;;;;;;;;;;4988133;28;20389;-59
2021/05/28 07:39:32;;;;;;;6.80;4.70;;;;;;;;;;4987913;28;20049;-59
2021/05/28 07:41:59;;;;;;;6.88;4.85;;;;;;;;;;5020151;28;20046;-60
2021/05/28 07:44:26;;;;;;;6.45;4.82;;;;;;;;;;5003386;28;20113;-60
2021/05/28 07:46:52;;;;;;;5.38;4.47;;;;;;;;;;5002590;28;20034;-59
2021/05/28 07:49:20;;;;;;;7.22;4.75;;;;;;;;;;4987274;28;20109;-60
2021/05/28 07:51:46;;;;;;;5.25;4.47;;;;;;;;;;4984885;28;20045;-59
2021/05/28 07:54:12;;;;;;;7.20;5.20;;;;;;;;;;4985069;28;20112;-58
2021/05/28 07:56:38;;;;;;;7.70;4.72;;;;;;;;;;4985391;28;20552;-58
2021/05/28 07:59:04;;;;;;;5.80;4.82;;;;;;;;;;4999818;28;20500;-59
2021/05/28 08:01:30;;;;;;;8.52;5.10;;;;;;;;;;4986235;28;20046;-60
2021/05/28 08:03:57;;;;;;;7.70;4.97;;;;;;;;;;5003652;28;20153;-60
2021/05/28 08:06:24;;;;;;;8.13;5.38;;;;;;;;;;5002453;28;20512;-59
2021/05/28 08:08:52;;;;;;;6.80;5.28;;;;;;;;;;5019262;28;20496;-59
2021/05/28 08:11:18;;;;;;;9.65;5.68;;;;;;;;;;5002695;28;20030;-59
2021/05/28 08:13:44;;;;;;;7.00;4.82;;;;;;;;;;4988093;28;20113;-59
2021/05/28 08:16:10;;;;;;;8.88;5.65;;;;;;;;;;4985484;28;20081;-59
2021/05/28 08:18:37;;;;;;;6.53;4.95;;;;;;;;;;4986153;28;20031;-59
2021/05/28 08:21:05;;;;;;;8.32;5.70;;;;;;;;;;4987852;28;20505;-59
2021/05/28 08:23:31;;;;;;;7.38;4.70;;;;;;;;;;4986126;28;20213;-59
2021/05/28 08:25:57;;;;;;;5.90;4.63;;;;;;;;;;4968211;28;20040;-59
2021/05/28 08:28:23;;;;;;;6.82;4.57;;;;;;;;;;4985274;28;20023;-59
2021/05/28 08:30:49;;;;;;;9.60;5.63;;;;;;;;;;4971807;28;20506;-59
2021/05/28 08:33:15;;;;;;;5.75;5.00;;;;;;;;;;4987155;28;20113;-59
2021/05/28 08:35:42;;;;;;;6.55;5.30;;;;;;;;;;4987413;28;20504;-60
2021/05/28 08:38:11;;;;;;;7.90;4.70;;;;;;;;;;4998882;28;20327;-60
2021/05/28 08:40:40;;;;;;;6.70;5.93;;;;;;;;;;4985020;28;20062;-59
2021/05/28 08:43:08;;;;;;;6.85;5.57;;;;;;;;;;4985636;28;20034;-59
2021/05/28 08:45:42;;;;;;;6.57;5.38;;;;;;;;;;4980756;28;20034;-58
2021/05/28 08:48:10;;;;;;;7.25;5.60;;;;;;;;;;4983759;28;20053;-59
2021/05/28 08:50:38;;;;;;;6.65;4.82;;;;;;;;;;4987397;28;20414;-60
2021/05/28 08:53:06;;;;;;;6.45;5.30;;;;;;;;;;4981516;28;20071;-60
2021/05/28 08:55:32;;;;;;;8.02;6.60;;;;;;;;;;4987721;28;20418;-60
2021/05/28 08:58:00;;;;;;;7.90;6.10;;;;;;;;;;4983865;28;20427;-60
2021/05/28 09:00:28;;;;;;;5.57;5.00;;;;;;;;;;4985000;28;20444;-60
2021/05/28 09:02:53;;;;;;;5.20;4.63;;;;;;;;;;4984311;28;20074;-59
2021/05/28 09:05:22;;;;;;;5.28;4.78;;;;;;;;;;4998203;28;20038;-60
2021/05/28 09:07:59;;;;;;;7.28;4.22;;;;;;;;;;4986021;28;20141;-58
2021/05/28 09:10:41;;;;;;;5.93;5.07;;;;;;;;;;4974147;28;20031;-59
2021/05/28 09:13:07;;;;;;;6.47;5.57;;;;;;;;;;4988414;28;20022;-59
2021/05/28 09:15:33;;;;;;;6.25;4.93;;;;;;;;;;4988335;28;20092;-61
2021/05/28 09:17:59;;;;;;;6.38;4.65;;;;;;;;;;5021358;28;20030;-60
2021/05/28 09:20:25;;;;;;;5.60;4.35;;;;;;;;;;5020795;28;20042;-59
2021/05/28 09:23:12;;;;;;;5.35;4.72;;;;;;;;;;4989584;28;20065;-59
2021/05/28 09:25:57;;;;;;;7.82;5.05;;;;;;;;;;4984692;28;20792;-60
2021/05/28 09:28:24;;;;;;;5.47;4.88;;;;;;;;;;4986990;28;20370;-60
2021/05/28 09:31:01;;;;;;;8.52;5.47;;;;;;;;;;4984284;28;20378;-59
2021/05/28 09:33:32;;;;;;;6.82;5.18;;;;;;;;;;4985291;28;20248;-59
2021/05/28 09:36:10;;;;;;;7.15;4.78;;;;;;;;;;4980626;28;20042;-58
2021/05/28 09:38:37;;;;;;;6.72;4.70;;;;;;;;;;4983532;28;20374;-58
2021/05/28 09:41:07;;;;;;;6.63;5.63;;;;;;;;;;4985404;28;20030;-59
2021/05/28 09:43:33;;;;;;;5.47;4.40;;;;;;;;;;4983888;28;20038;-59
2021/05/28 09:46:00;;;;;;;6.85;4.65;;;;;;;;;;5000104;28;20061;-59
2021/05/28 09:48:30;;;;;;;6.15;4.72;;;;;;;;;;4982481;28;20022;-59
2021/05/28 09:51:09;;;;;;;6.13;4.63;;;;;;;;;;4985505;28;20501;-59
2021/05/28 09:53:41;;;;;;;5.63;4.70;;;;;;;;;;4980889;28;20305;-59
2021/05/28 09:56:31;;;;;;;5.38;4.88;;;;;;;;;;4985413;28;20101;-59
2021/05/28 09:59:07;;;;;;;5.90;5.30;;;;;;;;;;5016326;28;20560;-59
2021/05/28 10:01:38;;;;;;;6.88;5.15;;;;;;;;;;4984659;28;20405;-58
2021/05/28 10:04:12;;;;;;;5.75;4.68;;;;;;;;;;4983985;28;20041;-59
2021/05/28 10:06:42;;;;;;;5.43;4.13;;;;;;;;;;5014570;28;20152;-59
2021/05/28 10:09:10;;;;;;;5.65;4.10;;;;;;;;;;4985511;28;20069;-57
2021/05/28 10:11:37;;;;;;;5.88;4.55;;;;;;;;;;4981368;28;20508;-59
2021/05/28 10:14:06;;;;;;;5.00;4.50;;;;;;;;;;4982129;28;20042;-59
2021/05/28 10:16:32;;;;;;;5.97;5.05;;;;;;;;;;4964374;28;20133;-58
2021/05/28 10:18:58;;;;;;;5.68;4.40;;;;;;;;;;4983361;28;20434;-59
2021/05/28 10:21:25;;;;;;;5.03;4.18;;;;;;;;;;5012961;28;20027;-58
2021/05/28 10:23:51;;;;;;;5.88;5.28;;;;;;;;;;4980211;28;20263;-58
2021/05/28 10:26:28;;;;;;;5.72;4.63;;;;;;;;;;4984619;28;20064;-59
2021/05/28 10:28:55;;;;;;;6.18;4.00;;;;;;;;;;5012584;28;20023;-59
2021/05/28 10:31:59;;;;;;;5.78;4.57;;;;;;;;;;4982519;28;20165;-59
2021/05/28 10:34:30;;;;;;;4.90;3.58;;;;;;;;;;4984384;28;20117;-60
2021/05/28 10:36:57;;;;;;;6.68;3.58;;;;;;;;;;4982858;28;20050;-59
2021/05/28 10:39:24;;;;;;;7.05;3.50;;;;;;;;;;4998224;28;20089;-59
2021/05/28 10:42:07;;;;;;;4.30;3.90;;;;;;;;;;4982596;28;20031;-60
2021/05/28 10:44:40;;;;;;;5.03;4.18;;;;;;;;;;4986148;28;20523;-60
2021/05/28 10:47:12;;;;;;;5.68;3.65;;;;;;;;;;4999221;28;20037;-60
2021/05/28 10:49:43;;;;;;;3.72;3.08;;;;;;;;;;5016807;28;20030;-59
2021/05/28 10:52:11;;;;;;;3.92;2.70;;;;;;;;;;4980456;28;20038;-59
2021/05/28 10:54:42;;;;;;;5.00;3.22;;;;;;;;;;5010605;28;20038;-60
2021/05/28 10:57:24;;;;;;;4.93;3.40;;;;;;;;;;4982369;28;20262;-59
2021/05/28 10:59:53;;;;;;;4.63;4.20;;;;;;;;;;5014745;28;20044;-58
2021/05/28 11:03:00;;;;;;;4.20;3.50;;;;;;;;;;4984575;28;20038;-58
2021/05/28 11:05:50;;;;;;;4.57;3.20;;;;;;;;;;4986098;28;20117;-57
2021/05/28 11:08:42;;;;;;;4.00;2.97;;;;;;;;;;5003337;28;20022;-58
2021/05/28 11:11:08;;;;;;;4.43;3.45;;;;;;;;;;4988142;28;20780;-58
2021/05/28 11:13:53;;;;;;;4.35;3.95;;;;;;;;;;4987036;28;20148;-58
2021/05/28 11:16:18;;;;;;;4.22;3.65;;;;;;;;;;5017794;28;20068;-58
2021/05/28 11:18:46;;;;;;;3.28;2.97;;;;;;;;;;5003804;28;20061;-58
2021/05/28 11:21:18;;;;;;;3.92;3.35;;;;;;;;;;4987983;28;20029;-58
2021/05/28 11:23:45;;;;;;;4.40;3.90;;;;;;;;;;4987671;28;20069;-58
2021/05/28 11:26:22;;;;;;;3.65;2.70;;;;;;;;;;4985281;28;20500;-59
2021/05/28 11:28:54;;;;;;;5.40;4.18;;;;;;;;;;4988682;28;20069;-59
2021/05/28 11:31:21;;;;;;;5.93;3.38;;;;;;;;;;4998382;28;20046;-58
2021/05/28 11:33:53;;;;;;;5.72;3.97;;;;;;;;;;4984258;28;20034;-58
2021/05/28 11:36:29;;;;;;;3.88;3.20;;;;;;;;;;4997768;28;20038;-58
2021/05/28 11:38:57;;;;;;;5.63;2.70;;;;;;;;;;4984122;28;20031;-58
2021/05/28 11:41:53;;;;;;;4.85;3.30;;;;;;;;;;4985295;28;20044;-59
2021/05/28 11:44:21;;;;;;;3.95;2.90;;;;;;;;;;4999395;28;20077;-59
2021/05/28 11:46:49;;;;;;;4.50;3.20;;;;;;;;;;4998450;28;20500;-59
2021/05/28 11:49:16;;;;;;;3.35;2.75;;;;;;;;;;4985399;28;20026;-59
2021/05/28 11:51:43;;;;;;;4.97;3.30;;;;;;;;;;5016048;28;20030;-58
2021/05/28 11:54:27;;;;;;;4.30;3.90;;;;;;;;;;4984052;28;20030;-59
2021/05/28 11:57:04;;;;;;;5.15;3.08;;;;;;;;;;4983441;28;20037;-58
2021/05/28 12:00:11;;;;;;;4.75;3.00;;;;;;;;;;4983893;28;20039;-59
2021/05/28 12:02:37;;;;;;;5.80;4.07;;;;;;;;;;4968063;28;20088;-59
2021/05/28 12:05:14;;;;;;;5.82;3.53;;;;;;;;;;4983647;28;20030;-58
2021/05/28 12:07:40;;;;;;;5.90;4.10;;;;;;;;;;4976050;28;20042;-59
2021/05/28 12:10:08;;;;;;;5.25;2.90;;;;;;;;;;4981934;28;20037;-59
2021/05/28 12:12:50;;;;;;;3.30;3.00;;;;;;;;;;4981026;28;20497;-59
2021/05/28 12:15:18;;;;;;;3.78;3.40;;;;;;;;;;4984173;28;20116;-59
2021/05/28 12:17:46;;;;;;;4.00;2.85;;;;;;;;;;4984428;28;20026;-59
2021/05/28 12:20:25;;;;;;;4.53;3.63;;;;;;;;;;4985620;28;20207;-59
2021/05/28 12:23:04;;;;;;;4.78;3.88;;;;;;;;;;4983631;28;20512;-58
2021/05/28 12:25:31;;;;;;;;;;;;;;;;;;4985886;28;20049;-58
2021/05/28 12:28:09;;;;;;;3.42;3.05;;;;;;;;;;4983382;28;19922;-59
2021/05/28 12:30:36;;;;;;;3.47;2.45;;;;;;;;;;4986228;28;20140;-59
2021/05/28 12:33:02;;;;;;;5.43;3.60;;;;;;;;;;4984826;28;20041;-59
2021/05/28 12:35:31;;;;;;;6.65;3.20;;;;;;;;;;5002925;28;20137;-58
2021/05/28 12:38:01;;;;;;;;;;;;;;;;;;4983936;28;20358;-58
2021/05/28 12:40:27;;;;;;;5.93;3.20;;;;;;;;;;4984544;28;19940;-58
2021/05/28 12:42:58;;;;;;;4.40;2.67;;;;;;;;;;4981397;28;20560;-58
2021/05/28 12:45:44;;;;;;;6.20;3.10;;;;;;;;;;4967019;28;20042;-59
2021/05/28 12:48:11;;;;;;;3.78;2.80;;;;;;;;;;4984095;28;20042;-59
2021/05/28 12:50:42;;;;;;;4.78;2.80;;;;;;;;;;4983425;28;20045;-59
2021/05/28 12:53:27;;;;;;;2.78;2.53;;;;;;;;;;4985794;28;20029;-59
2021/05/28 12:55:56;;;;;;;3.60;2.58;;;;;;;;;;4982186;28;20077;-58
2021/05/28 12:58:25;;;;;;;4.00;3.70;;;;;;;;;;4981184;28;20030;-59
2021/05/28 13:01:09;;;;;;;3.15;2.60;;;;;;;;;;4999007;28;20493;-59
2021/05/28 13:03:44;;;;;;;4.50;2.47;;;;;;;;;;4985986;28;20114;-59
2021/05/28 13:06:27;;;;;;;4.80;2.47;;;;;;;;;;4983325;28;20038;-59
2021/05/28 13:08:55;;;;;;;3.00;2.20;;;;;;;;;;4984490;28;20026;-58
2021/05/28 13:11:21;;;;;;;2.58;2.38;;;;;;;;;;4997577;28;20034;-58
2021/05/28 13:13:49;;;;;;;2.47;2.13;;;;;;;;;;4995880;28;20042;-59
2021/05/28 13:16:24;;;;;;;3.53;1.85;;;;;;;;;;4985076;28;20101;-58
2021/05/28 13:18:50;;;;;;;2.55;2.35;;;;;;;;;;4977915;28;20076;-58
2021/05/28 13:21:27;;;;;;;3.83;1.90;;;;;;;;;;5001517;28;20030;-59
2021/05/28 13:23:55;;;;;;;2.63;2.00;;;;;;;;;;4986172;28;20037;-59
2021/05/28 13:26:23;;;;;;;4.53;2.63;;;;;;;;;;4982787;28;20121;-59
2021/05/28 13:28:50;;;;;;;3.13;2.38;;;;;;;;;;4981164;28;20137;-57
2021/05/28 13:31:19;;;;;;;3.15;2.47;;;;;;;;;;4981138;28;20429;-59
2021/05/28 13:33:45;;;;;;;3.35;2.42;;;;;;;;;;4986690;28;20041;-59
2021/05/28 13:36:18;;;;;;;5.10;2.53;;;;;;;;;;4983742;28;20030;-59
2021/05/28 13:38:48;;;;;;;3.63;2.20;;;;;;;;;;4979229;28;20551;-59
2021/05/28 13:41:21;;;;;;;3.13;2.75;;;;;;;;;;4986685;28;20105;-59
2021/05/28 13:43:48;;;;;;;4.15;2.30;;;;;;;;;;4985500;28;20038;-59
2021/05/28 13:46:13;;;;;;;4.60;3.28;;;;;;;;;;4980755;28;20092;-57
2021/05/28 13:48:39;;;;;;;5.43;3.50;;;;;;;;;;4986307;28;20034;-59
2021/05/28 13:51:08;;;;;;;6.32;2.53;;;;;;;;;;4985057;28;20030;-58
2021/05/28 13:53:34;;;;;;;4.10;2.38;;;;;;;;;;4985621;28;20037;-58
2021/05/28 13:56:01;;;;;;;2.83;2.60;;;;;;;;;;4984890;28;20141;-58
2021/05/28 13:58:27;;;;;;;3.28;2.70;;;;;;;;;;4982798;28;20086;-58
2021/05/28 14:00:53;;;;;;;2.65;2.13;;;;;;;;;;4966899;28;20042;-59
2021/05/28 14:03:20;;;;;;;3.00;2.70;;;;;;;;;;4984539;28;20060;-58
2021/05/28 14:05:46;;;;;;;3.17;2.58;;;;;;;;;;4984898;28;20433;-58
2021/05/28 14:08:15;;;;;;;3.95;2.05;;;;;;;;;;4985183;28;20037;-58
2021/05/28 14:10:43;;;;;;;;;;;;;;;;;;4984367;28;20026;-58
2021/05/28 14:13:10;;;;;;;2.00;1.80;;;;;;;;;;4981217;28;19917;-59
2021/05/28 14:15:36;;;;;;;3.20;2.35;;;;;;;;;;4975782;28;20052;-59
2021/05/28 14:18:02;;;;;;;3.28;2.50;;;;;;;;;;4982487;28;20394;-59
2021/05/28 14:20:28;;;;;;;2.70;2.50;;;;;;;;;;4981559;28;20038;-58
2021/05/28 14:22:55;;;;;;;2.80;2.60;;;;;;;;;;4982635;28;20373;-58
2021/05/28 14:25:26;;;;;;;2.33;2.10;;;;;;;;;;4985117;28;20120;-59
2021/05/28 14:27:59;;;;;;;2.50;2.30;;;;;;;;;;4970185;28;20064;-58
2021/05/28 14:30:27;;;;;;;2.78;2.22;;;;;;;;;;4966577;28;20041;-58
2021/05/28 14:32:56;;;;;;;2.28;2.05;;;;;;;;;;4984724;28;20130;-58
2021/05/28 14:35:22;;;;;;;3.67;2.25;;;;;;;;;;5002033;28;20030;-58
2021/05/28 14:37:49;;;;;;;2.42;2.00;;;;;;;;;;5012914;28;20046;-58
2021/05/28 14:40:18;;;;;;;2.05;1.85;;;;;;;;;;4989106;28;20022;-58
2021/05/28 14:42:47;;;;;;;2.22;1.85;;;;;;;;;;4989451;28;20031;-57
2021/05/28 14:45:14;;;;;;;3.80;1.90;;;;;;;;;;4987301;28;20034;-58
2021/05/28 14:47:40;;;;;;;2.60;1.80;;;;;;;;;;4985318;28;20069;-59
2021/05/28 14:50:09;;;;;;;5.00;1.80;;;;;;;;;;4989222;28;20038;-58